sensor_id;sensor_type;location;lat;lon;timestamp;temperature;humidity
10826;DHT22;5466;55.898;14.094;2023-09-19T00:00:27;14.30;99.90
10826;DHT22;5466;55.898;14.094;2023-09-19T00:02:28;14.30;99.90
10826;DHT22;5466;55.898;14.094;2023-09-19T00:04:31;14.30;99.90
10826;DHT22;5466;55.898;14.094;2023-09-19T00:06:32;14.30;99.90
10826;DHT22;5466;55.898;14.094;2023-09-19T00:08:36;14.20;99.90
10826;DHT22;5466;55.898;14.094;2023-09-19T00:10:36;14.10;99.90
10826;DHT22;5466;55.898;14.094;2023-09-19T00:12:37;14.10;99.90
10826;DHT22;5466;55.898;14.094;2023-09-19T00:14:42;14.00;99.90
10826;DHT22;5466;55.898;14.094;2023-09-19T00:16:43;14.00;99.90
10826;DHT22;5466;55.898;14.094;2023-09-19T00:18:45;14.00;99.90
10826;DHT22;5466;55.898;14.094;2023-09-19T00:20:45;14.00;99.90
10826;DHT22;5466;55.898;14.094;2023-09-19T00:22:50;13.90;99.90
10826;DHT22;5466;55.898;14.094;2023-09-19T00:24:53;13.90;99.90
10826;DHT22;5466;55.898;14.094;2023-09-19T00:26:55;13.90;99.90
10826;DHT22;5466;55.898;14.094;2023-09-19T00:28:56;13.90;99.90
10826;DHT22;5466;55.898;14.094;2023-09-19T00:30:57;13.90;99.90
10826;DHT22;5466;55.898;14.094;2023-09-19T00:33:01;13.90;99.90
10826;DHT22;5466;55.898;14.094;2023-09-19T00:35:06;13.90;99.90
10826;DHT22;5466;55.898;14.094;2023-09-19T00:37:08;13.80;99.90
10826;DHT22;5466;55.898;14.094;2023-09-19T00:39:11;13.70;99.90
10826;DHT22;5466;55.898;14.094;2023-09-19T00:41:12;13.70;99.90
10826;DHT22;5466;55.898;14.094;2023-09-19T00:43:13;13.70;99.90
10826;DHT22;5466;55.898;14.094;2023-09-19T00:45:15;13.70;99.90
10826;DHT22;5466;55.898;14.094;2023-09-19T00:47:17;13.80;99.90
10826;DHT22;5466;55.898;14.094;2023-09-19T00:49:18;13.80;99.90
10826;DHT22;5466;55.898;14.094;2023-09-19T00:51:23;13.80;99.90
10826;DHT22;5466;55.898;14.094;2023-09-19T00:53:25;13.70;99.90
10826;DHT22;5466;55.898;14.094;2023-09-19T00:55:29;13.70;99.90
10826;DHT22;5466;55.898;14.094;2023-09-19T00:57:30;13.70;99.90
10826;DHT22;5466;55.898;14.094;2023-09-19T00:59:33;13.70;99.90
10826;DHT22;5466;55.898;14.094;2023-09-19T01:01:33;13.60;99.90
10826;DHT22;5466;55.898;14.094;2023-09-19T01:03:34;13.60;99.90
10826;DHT22;5466;55.898;14.094;2023-09-19T01:05:35;13.60;99.90
10826;DHT22;5466;55.898;14.094;2023-09-19T01:07:36;13.60;99.90
10826;DHT22;5466;55.898;14.094;2023-09-19T01:09:39;13.90;99.90
10826;DHT22;5466;55.898;14.094;2023-09-19T01:11:43;14.10;99.90
10826;DHT22;5466;55.898;14.094;2023-09-19T01:14:02;14.30;99.90
10826;DHT22;5466;55.898;14.094;2023-09-19T01:18:44;14.70;99.90
10826;DHT22;5466;55.898;14.094;2023-09-19T01:23:28;15.30;99.90
10826;DHT22;5466;55.898;14.094;2023-09-19T01:28:20;15.50;99.90
10826;DHT22;5466;55.898;14.094;2023-09-19T01:30:26;15.50;99.90
10826;DHT22;5466;55.898;14.094;2023-09-19T01:32:29;15.50;99.90
10826;DHT22;5466;55.898;14.094;2023-09-19T01:34:56;15.50;99.90
10826;DHT22;5466;55.898;14.094;2023-09-19T01:37:00;15.50;99.90
10826;DHT22;5466;55.898;14.094;2023-09-19T01:39:07;15.60;99.90
10826;DHT22;5466;55.898;14.094;2023-09-19T01:41:12;15.60;99.90
10826;DHT22;5466;55.898;14.094;2023-09-19T01:43:22;15.60;99.90
10826;DHT22;5466;55.898;14.094;2023-09-19T01:46:00;15.70;99.90
10826;DHT22;5466;55.898;14.094;2023-09-19T01:51:05;15.80;99.90
10826;DHT22;5466;55.898;14.094;2023-09-19T01:53:26;15.80;99.90
10826;DHT22;5466;55.898;14.094;2023-09-19T01:55:37;15.90;99.90
10826;DHT22;5466;55.898;14.094;2023-09-19T01:58:08;16.00;99.90
10826;DHT22;5466;55.898;14.094;2023-09-19T02:00:13;16.00;99.90
10826;DHT22;5466;55.898;14.094;2023-09-19T02:02:15;16.00;99.90
10826;DHT22;5466;55.898;14.094;2023-09-19T02:04:18;16.10;99.90
10826;DHT22;5466;55.898;14.094;2023-09-19T02:06:19;16.10;99.90
10826;DHT22;5466;55.898;14.094;2023-09-19T02:08:20;16.10;99.90
10826;DHT22;5466;55.898;14.094;2023-09-19T02:10:24;16.20;99.90
10826;DHT22;5466;55.898;14.094;2023-09-19T02:12:24;16.20;99.90
10826;DHT22;5466;55.898;14.094;2023-09-19T02:14:25;16.20;99.90
10826;DHT22;5466;55.898;14.094;2023-09-19T02:16:25;16.20;99.90
10826;DHT22;5466;55.898;14.094;2023-09-19T02:18:26;16.30;99.90
10826;DHT22;5466;55.898;14.094;2023-09-19T02:20:28;16.30;99.90
10826;DHT22;5466;55.898;14.094;2023-09-19T02:22:29;16.20;99.90
10826;DHT22;5466;55.898;14.094;2023-09-19T02:24:29;16.30;99.90
10826;DHT22;5466;55.898;14.094;2023-09-19T02:26:31;16.30;99.90
10826;DHT22;5466;55.898;14.094;2023-09-19T02:28:32;16.30;99.90
10826;DHT22;5466;55.898;14.094;2023-09-19T02:30:33;16.40;99.90
10826;DHT22;5466;55.898;14.094;2023-09-19T02:32:33;16.40;99.90
10826;DHT22;5466;55.898;14.094;2023-09-19T02:34:36;16.40;99.90
10826;DHT22;5466;55.898;14.094;2023-09-19T02:36:39;16.50;99.90
10826;DHT22;5466;55.898;14.094;2023-09-19T02:38:39;16.50;99.90
10826;DHT22;5466;55.898;14.094;2023-09-19T02:40:40;16.50;99.90
10826;DHT22;5466;55.898;14.094;2023-09-19T02:42:42;16.50;99.90
10826;DHT22;5466;55.898;14.094;2023-09-19T02:44:49;16.50;99.90
10826;DHT22;5466;55.898;14.094;2023-09-19T02:46:50;16.50;99.90
10826;DHT22;5466;55.898;14.094;2023-09-19T02:48:50;16.50;99.90
10826;DHT22;5466;55.898;14.094;2023-09-19T02:50:51;16.50;99.90
10826;DHT22;5466;55.898;14.094;2023-09-19T02:52:52;16.50;99.90
10826;DHT22;5466;55.898;14.094;2023-09-19T02:54:53;16.50;99.90
10826;DHT22;5466;55.898;14.094;2023-09-19T02:56:53;16.50;99.90
10826;DHT22;5466;55.898;14.094;2023-09-19T02:58:55;16.60;99.90
10826;DHT22;5466;55.898;14.094;2023-09-19T03:00:55;16.50;99.90
10826;DHT22;5466;55.898;14.094;2023-09-19T03:02:57;16.60;99.90
10826;DHT22;5466;55.898;14.094;2023-09-19T03:04:57;16.50;99.90
10826;DHT22;5466;55.898;14.094;2023-09-19T03:07:01;16.50;99.90
10826;DHT22;5466;55.898;14.094;2023-09-19T03:09:02;16.60;99.90
10826;DHT22;5466;55.898;14.094;2023-09-19T03:11:06;16.60;99.90
10826;DHT22;5466;55.898;14.094;2023-09-19T03:13:09;16.60;99.90
10826;DHT22;5466;55.898;14.094;2023-09-19T03:15:11;16.60;99.90
10826;DHT22;5466;55.898;14.094;2023-09-19T03:17:11;16.70;99.90
10826;DHT22;5466;55.898;14.094;2023-09-19T03:19:14;16.80;99.90
10826;DHT22;5466;55.898;14.094;2023-09-19T03:21:16;16.90;99.90
10826;DHT22;5466;55.898;14.094;2023-09-19T03:23:17;16.90;99.90
10826;DHT22;5466;55.898;14.094;2023-09-19T03:25:18;16.90;99.90
10826;DHT22;5466;55.898;14.094;2023-09-19T03:27:19;17.00;99.90
10826;DHT22;5466;55.898;14.094;2023-09-19T03:29:21;17.00;99.90
10826;DHT22;5466;55.898;14.094;2023-09-19T03:31:21;17.00;99.90
10826;DHT22;5466;55.898;14.094;2023-09-19T03:33:22;17.00;99.90
10826;DHT22;5466;55.898;14.094;2023-09-19T03:35:22;17.00;99.90
10826;DHT22;5466;55.898;14.094;2023-09-19T03:37:23;16.90;99.90
10826;DHT22;5466;55.898;14.094;2023-09-19T03:39:23;17.00;99.90
10826;DHT22;5466;55.898;14.094;2023-09-19T03:41:24;17.00;99.90
10826;DHT22;5466;55.898;14.094;2023-09-19T03:43:24;16.90;99.90
10826;DHT22;5466;55.898;14.094;2023-09-19T03:45:25;16.90;99.90
10826;DHT22;5466;55.898;14.094;2023-09-19T03:47:26;16.90;99.90
10826;DHT22;5466;55.898;14.094;2023-09-19T03:49:26;17.00;99.90
10826;DHT22;5466;55.898;14.094;2023-09-19T03:51:27;17.00;99.90
10826;DHT22;5466;55.898;14.094;2023-09-19T03:53:27;17.00;99.90
10826;DHT22;5466;55.898;14.094;2023-09-19T03:55:28;17.00;99.90
10826;DHT22;5466;55.898;14.094;2023-09-19T03:57:30;17.00;99.90
10826;DHT22;5466;55.898;14.094;2023-09-19T03:59:31;17.00;99.90
10826;DHT22;5466;55.898;14.094;2023-09-19T04:01:31;17.00;99.90
10826;DHT22;5466;55.898;14.094;2023-09-19T04:03:34;17.00;99.90
10826;DHT22;5466;55.898;14.094;2023-09-19T04:05:46;17.00;99.90
10826;DHT22;5466;55.898;14.094;2023-09-19T04:07:47;17.00;99.90
10826;DHT22;5466;55.898;14.094;2023-09-19T04:09:48;17.00;99.90
10826;DHT22;5466;55.898;14.094;2023-09-19T04:11:49;17.00;99.90
10826;DHT22;5466;55.898;14.094;2023-09-19T04:13:50;17.00;99.90
10826;DHT22;5466;55.898;14.094;2023-09-19T04:15:51;17.00;99.90
10826;DHT22;5466;55.898;14.094;2023-09-19T04:17:51;16.90;99.90
10826;DHT22;5466;55.898;14.094;2023-09-19T04:19:52;16.90;99.90
10826;DHT22;5466;55.898;14.094;2023-09-19T04:21:53;16.90;99.90
10826;DHT22;5466;55.898;14.094;2023-09-19T04:23:54;16.90;99.90
10826;DHT22;5466;55.898;14.094;2023-09-19T04:25:55;16.90;99.90
10826;DHT22;5466;55.898;14.094;2023-09-19T04:27:55;16.90;99.90
10826;DHT22;5466;55.898;14.094;2023-09-19T04:29:56;16.90;99.90
10826;DHT22;5466;55.898;14.094;2023-09-19T04:31:59;16.90;99.90
10826;DHT22;5466;55.898;14.094;2023-09-19T04:33:59;16.90;99.90
10826;DHT22;5466;55.898;14.094;2023-09-19T04:36:05;16.90;99.90
10826;DHT22;5466;55.898;14.094;2023-09-19T04:38:08;16.90;99.90
10826;DHT22;5466;55.898;14.094;2023-09-19T04:40:09;16.90;99.90
10826;DHT22;5466;55.898;14.094;2023-09-19T04:42:14;16.90;99.90
10826;DHT22;5466;55.898;14.094;2023-09-19T04:44:15;16.80;99.90
10826;DHT22;5466;55.898;14.094;2023-09-19T04:46:16;16.80;99.90
10826;DHT22;5466;55.898;14.094;2023-09-19T04:48:18;16.70;99.90
10826;DHT22;5466;55.898;14.094;2023-09-19T04:50:19;16.70;99.90
10826;DHT22;5466;55.898;14.094;2023-09-19T04:52:21;16.70;99.90
10826;DHT22;5466;55.898;14.094;2023-09-19T04:54:22;16.70;99.90
10826;DHT22;5466;55.898;14.094;2023-09-19T04:56:23;16.70;99.90
10826;DHT22;5466;55.898;14.094;2023-09-19T04:58:24;16.70;99.90
10826;DHT22;5466;55.898;14.094;2023-09-19T05:00:25;16.70;99.90
10826;DHT22;5466;55.898;14.094;2023-09-19T05:02:29;16.60;99.90
10826;DHT22;5466;55.898;14.094;2023-09-19T05:04:31;16.50;99.90
10826;DHT22;5466;55.898;14.094;2023-09-19T05:06:32;16.40;99.90
10826;DHT22;5466;55.898;14.094;2023-09-19T05:08:34;16.40;99.90
10826;DHT22;5466;55.898;14.094;2023-09-19T05:10:35;16.40;99.90
10826;DHT22;5466;55.898;14.094;2023-09-19T05:12:38;16.30;99.90
10826;DHT22;5466;55.898;14.094;2023-09-19T05:14:38;16.40;99.90
10826;DHT22;5466;55.898;14.094;2023-09-19T05:16:40;16.40;99.90
10826;DHT22;5466;55.898;14.094;2023-09-19T05:18:41;16.40;99.90
10826;DHT22;5466;55.898;14.094;2023-09-19T05:20:42;16.40;99.90
10826;DHT22;5466;55.898;14.094;2023-09-19T05:22:43;16.40;99.90
10826;DHT22;5466;55.898;14.094;2023-09-19T05:24:46;16.40;99.90
10826;DHT22;5466;55.898;14.094;2023-09-19T05:26:49;16.40;99.90
10826;DHT22;5466;55.898;14.094;2023-09-19T05:28:50;16.40;99.90
10826;DHT22;5466;55.898;14.094;2023-09-19T05:30:51;16.40;99.90
10826;DHT22;5466;55.898;14.094;2023-09-19T05:32:51;16.30;99.90
10826;DHT22;5466;55.898;14.094;2023-09-19T05:34:52;16.30;99.90
10826;DHT22;5466;55.898;14.094;2023-09-19T05:36:53;16.30;99.90
10826;DHT22;5466;55.898;14.094;2023-09-19T05:38:55;16.20;99.90
10826;DHT22;5466;55.898;14.094;2023-09-19T05:40:56;16.30;99.90
10826;DHT22;5466;55.898;14.094;2023-09-19T05:42:56;16.30;99.90
10826;DHT22;5466;55.898;14.094;2023-09-19T05:44:57;16.30;99.90
10826;DHT22;5466;55.898;14.094;2023-09-19T05:46:58;16.30;99.90
10826;DHT22;5466;55.898;14.094;2023-09-19T05:48:59;16.40;99.90
10826;DHT22;5466;55.898;14.094;2023-09-19T05:51:00;16.50;99.90
10826;DHT22;5466;55.898;14.094;2023-09-19T05:53:01;16.60;99.90
10826;DHT22;5466;55.898;14.094;2023-09-19T05:55:02;16.80;99.90
10826;DHT22;5466;55.898;14.094;2023-09-19T05:57:05;17.00;99.90
10826;DHT22;5466;55.898;14.094;2023-09-19T05:59:06;17.10;99.90
10826;DHT22;5466;55.898;14.094;2023-09-19T06:01:06;17.10;99.90
10826;DHT22;5466;55.898;14.094;2023-09-19T06:03:07;17.00;99.90
10826;DHT22;5466;55.898;14.094;2023-09-19T06:05:08;16.90;99.90
10826;DHT22;5466;55.898;14.094;2023-09-19T06:07:12;16.90;99.90
10826;DHT22;5466;55.898;14.094;2023-09-19T06:09:12;16.90;99.90
10826;DHT22;5466;55.898;14.094;2023-09-19T06:11:14;16.80;99.90
10826;DHT22;5466;55.898;14.094;2023-09-19T06:13:15;16.90;99.90
10826;DHT22;5466;55.898;14.094;2023-09-19T06:15:16;16.90;99.90
10826;DHT22;5466;55.898;14.094;2023-09-19T06:17:19;16.90;99.90
10826;DHT22;5466;55.898;14.094;2023-09-19T06:19:20;16.90;99.90
10826;DHT22;5466;55.898;14.094;2023-09-19T06:21:23;16.90;99.90
10826;DHT22;5466;55.898;14.094;2023-09-19T06:23:24;17.00;99.90
10826;DHT22;5466;55.898;14.094;2023-09-19T06:25:26;17.10;99.90
10826;DHT22;5466;55.898;14.094;2023-09-19T06:27:27;17.30;99.90
10826;DHT22;5466;55.898;14.094;2023-09-19T06:29:29;17.30;99.90
10826;DHT22;5466;55.898;14.094;2023-09-19T06:31:30;17.40;99.90
10826;DHT22;5466;55.898;14.094;2023-09-19T06:33:31;17.40;99.90
10826;DHT22;5466;55.898;14.094;2023-09-19T06:35:33;17.40;99.90
10826;DHT22;5466;55.898;14.094;2023-09-19T06:37:34;17.30;99.90
10826;DHT22;5466;55.898;14.094;2023-09-19T06:39:41;17.20;99.90
10826;DHT22;5466;55.898;14.094;2023-09-19T06:41:42;17.20;99.90
10826;DHT22;5466;55.898;14.094;2023-09-19T06:43:42;17.20;99.90
10826;DHT22;5466;55.898;14.094;2023-09-19T06:45:45;17.30;99.90
10826;DHT22;5466;55.898;14.094;2023-09-19T06:47:47;17.30;99.90
10826;DHT22;5466;55.898;14.094;2023-09-19T06:49:51;17.30;99.90
10826;DHT22;5466;55.898;14.094;2023-09-19T06:51:54;17.40;99.90
10826;DHT22;5466;55.898;14.094;2023-09-19T06:53:55;17.40;99.90
10826;DHT22;5466;55.898;14.094;2023-09-19T06:55:57;17.50;99.90
10826;DHT22;5466;55.898;14.094;2023-09-19T06:57:58;17.80;99.90
10826;DHT22;5466;55.898;14.094;2023-09-19T06:59:59;18.20;99.90
10826;DHT22;5466;55.898;14.094;2023-09-19T07:02:01;18.50;99.90
10826;DHT22;5466;55.898;14.094;2023-09-19T07:04:03;18.50;99.90
10826;DHT22;5466;55.898;14.094;2023-09-19T07:06:03;18.60;99.90
10826;DHT22;5466;55.898;14.094;2023-09-19T07:08:06;18.80;99.90
10826;DHT22;5466;55.898;14.094;2023-09-19T07:10:07;19.00;99.90
10826;DHT22;5466;55.898;14.094;2023-09-19T07:12:11;18.90;99.90
10826;DHT22;5466;55.898;14.094;2023-09-19T07:14:12;18.60;99.90
10826;DHT22;5466;55.898;14.094;2023-09-19T07:16:13;18.40;99.90
10826;DHT22;5466;55.898;14.094;2023-09-19T07:18:27;18.30;99.90
10826;DHT22;5466;55.898;14.094;2023-09-19T07:20:28;18.30;99.90
10826;DHT22;5466;55.898;14.094;2023-09-19T07:22:32;18.20;99.90
10826;DHT22;5466;55.898;14.094;2023-09-19T07:24:32;18.10;99.90
10826;DHT22;5466;55.898;14.094;2023-09-19T07:26:33;18.00;99.90
10826;DHT22;5466;55.898;14.094;2023-09-19T07:28:34;17.80;99.90
10826;DHT22;5466;55.898;14.094;2023-09-19T07:30:38;17.70;99.90
10826;DHT22;5466;55.898;14.094;2023-09-19T07:32:39;17.60;99.90
10826;DHT22;5466;55.898;14.094;2023-09-19T07:34:41;17.60;99.90
10826;DHT22;5466;55.898;14.094;2023-09-19T07:36:41;17.70;99.90
10826;DHT22;5466;55.898;14.094;2023-09-19T07:38:42;18.00;99.90
10826;DHT22;5466;55.898;14.094;2023-09-19T07:40:43;18.30;99.90
10826;DHT22;5466;55.898;14.094;2023-09-19T07:42:44;18.40;99.90
10826;DHT22;5466;55.898;14.094;2023-09-19T07:44:47;18.40;99.90
10826;DHT22;5466;55.898;14.094;2023-09-19T07:46:51;18.60;99.90
10826;DHT22;5466;55.898;14.094;2023-09-19T07:48:52;18.40;99.90
10826;DHT22;5466;55.898;14.094;2023-09-19T07:50:53;18.50;99.90
10826;DHT22;5466;55.898;14.094;2023-09-19T07:52:53;18.60;99.90
10826;DHT22;5466;55.898;14.094;2023-09-19T07:54:56;18.60;99.90
10826;DHT22;5466;55.898;14.094;2023-09-19T07:56:57;18.50;99.90
10826;DHT22;5466;55.898;14.094;2023-09-19T07:59:00;18.30;99.90
10826;DHT22;5466;55.898;14.094;2023-09-19T08:01:04;18.10;99.90
10826;DHT22;5466;55.898;14.094;2023-09-19T08:03:05;17.90;99.90
10826;DHT22;5466;55.898;14.094;2023-09-19T08:05:10;17.80;99.90
10826;DHT22;5466;55.898;14.094;2023-09-19T08:07:12;17.70;99.90
10826;DHT22;5466;55.898;14.094;2023-09-19T08:09:13;17.60;99.90
10826;DHT22;5466;55.898;14.094;2023-09-19T08:11:20;17.70;99.90
10826;DHT22;5466;55.898;14.094;2023-09-19T08:13:25;17.70;99.90
10826;DHT22;5466;55.898;14.094;2023-09-19T08:15:26;17.80;99.90
10826;DHT22;5466;55.898;14.094;2023-09-19T08:17:27;17.80;99.90
10826;DHT22;5466;55.898;14.094;2023-09-19T08:19:28;17.60;99.90
10826;DHT22;5466;55.898;14.094;2023-09-19T08:21:28;17.50;99.90
10826;DHT22;5466;55.898;14.094;2023-09-19T08:23:30;17.60;99.90
10826;DHT22;5466;55.898;14.094;2023-09-19T08:25:32;17.80;99.90
10826;DHT22;5466;55.898;14.094;2023-09-19T08:27:33;18.10;99.90
10826;DHT22;5466;55.898;14.094;2023-09-19T08:29:34;18.50;99.90
10826;DHT22;5466;55.898;14.094;2023-09-19T08:31:35;18.50;99.90
10826;DHT22;5466;55.898;14.094;2023-09-19T08:33:36;18.30;99.90
10826;DHT22;5466;55.898;14.094;2023-09-19T08:35:37;18.10;99.90
10826;DHT22;5466;55.898;14.094;2023-09-19T08:37:40;17.90;99.90
10826;DHT22;5466;55.898;14.094;2023-09-19T08:39:40;18.00;99.90
10826;DHT22;5466;55.898;14.094;2023-09-19T08:41:41;18.20;99.90
10826;DHT22;5466;55.898;14.094;2023-09-19T08:43:41;18.30;99.90
10826;DHT22;5466;55.898;14.094;2023-09-19T08:45:43;18.40;99.90
10826;DHT22;5466;55.898;14.094;2023-09-19T08:47:47;18.40;99.90
10826;DHT22;5466;55.898;14.094;2023-09-19T08:50:07;18.40;99.90
10826;DHT22;5466;55.898;14.094;2023-09-19T08:52:24;18.30;99.90
10826;DHT22;5466;55.898;14.094;2023-09-19T08:54:25;18.30;99.90
10826;DHT22;5466;55.898;14.094;2023-09-19T08:56:30;18.30;99.90
10826;DHT22;5466;55.898;14.094;2023-09-19T08:58:46;18.40;99.90
10826;DHT22;5466;55.898;14.094;2023-09-19T09:00:48;18.80;99.90
10826;DHT22;5466;55.898;14.094;2023-09-19T09:02:51;19.10;99.90
10826;DHT22;5466;55.898;14.094;2023-09-19T09:04:53;19.30;99.90
10826;DHT22;5466;55.898;14.094;2023-09-19T09:06:55;19.10;99.90
10826;DHT22;5466;55.898;14.094;2023-09-19T09:08:56;19.30;99.90
10826;DHT22;5466;55.898;14.094;2023-09-19T09:10:58;19.40;99.90
10826;DHT22;5466;55.898;14.094;2023-09-19T09:12:59;19.50;99.90
10826;DHT22;5466;55.898;14.094;2023-09-19T09:15:00;19.70;99.90
10826;DHT22;5466;55.898;14.094;2023-09-19T09:17:04;20.10;99.90
10826;DHT22;5466;55.898;14.094;2023-09-19T09:19:04;20.30;99.90
10826;DHT22;5466;55.898;14.094;2023-09-19T09:21:05;20.40;99.90
10826;DHT22;5466;55.898;14.094;2023-09-19T09:23:06;20.30;99.90
10826;DHT22;5466;55.898;14.094;2023-09-19T09:25:07;20.10;99.90
10826;DHT22;5466;55.898;14.094;2023-09-19T09:27:12;20.40;99.90
10826;DHT22;5466;55.898;14.094;2023-09-19T09:29:13;20.50;99.90
10826;DHT22;5466;55.898;14.094;2023-09-19T09:31:24;20.20;99.90
10826;DHT22;5466;55.898;14.094;2023-09-19T09:33:25;19.70;99.90
10826;DHT22;5466;55.898;14.094;2023-09-19T09:35:26;19.80;99.90
10826;DHT22;5466;55.898;14.094;2023-09-19T09:37:28;19.90;99.90
10826;DHT22;5466;55.898;14.094;2023-09-19T09:39:31;20.30;99.90
10826;DHT22;5466;55.898;14.094;2023-09-19T09:41:38;20.60;99.90
10826;DHT22;5466;55.898;14.094;2023-09-19T09:43:40;20.70;99.90
10826;DHT22;5466;55.898;14.094;2023-09-19T09:45:41;20.60;99.90
10826;DHT22;5466;55.898;14.094;2023-09-19T09:47:49;20.30;99.90
10826;DHT22;5466;55.898;14.094;2023-09-19T09:49:58;20.20;99.90
10826;DHT22;5466;55.898;14.094;2023-09-19T09:52:07;19.90;99.90
10826;DHT22;5466;55.898;14.094;2023-09-19T09:54:18;18.90;99.90
10826;DHT22;5466;55.898;14.094;2023-09-19T09:56:22;17.80;99.90
10826;DHT22;5466;55.898;14.094;2023-09-19T09:58:23;16.50;99.90
10826;DHT22;5466;55.898;14.094;2023-09-19T10:00:29;15.60;99.90
10826;DHT22;5466;55.898;14.094;2023-09-19T10:02:42;15.10;99.90
10826;DHT22;5466;55.898;14.094;2023-09-19T10:04:46;15.00;99.90
10826;DHT22;5466;55.898;14.094;2023-09-19T10:07:08;15.20;99.90
10826;DHT22;5466;55.898;14.094;2023-09-19T10:09:11;15.20;99.90
10826;DHT22;5466;55.898;14.094;2023-09-19T10:11:18;15.40;99.90
10826;DHT22;5466;55.898;14.094;2023-09-19T10:13:20;15.50;99.90
10826;DHT22;5466;55.898;14.094;2023-09-19T10:15:26;15.70;99.90
10826;DHT22;5466;55.898;14.094;2023-09-19T10:17:34;15.90;99.90
10826;DHT22;5466;55.898;14.094;2023-09-19T10:19:54;16.20;99.90
10826;DHT22;5466;55.898;14.094;2023-09-19T10:21:59;16.60;99.90
10826;DHT22;5466;55.898;14.094;2023-09-19T10:24:02;16.90;99.90
10826;DHT22;5466;55.898;14.094;2023-09-19T10:26:08;16.90;99.90
10826;DHT22;5466;55.898;14.094;2023-09-19T10:28:11;17.10;99.90
10826;DHT22;5466;55.898;14.094;2023-09-19T10:30:13;17.40;99.90
10826;DHT22;5466;55.898;14.094;2023-09-19T10:32:16;17.70;99.90
10826;DHT22;5466;55.898;14.094;2023-09-19T10:34:20;18.00;99.90
10826;DHT22;5466;55.898;14.094;2023-09-19T10:36:26;18.30;99.90
10826;DHT22;5466;55.898;14.094;2023-09-19T10:38:30;18.80;99.90
10826;DHT22;5466;55.898;14.094;2023-09-19T10:40:33;19.00;99.90
10826;DHT22;5466;55.898;14.094;2023-09-19T10:42:38;19.60;99.90
10826;DHT22;5466;55.898;14.094;2023-09-19T10:44:41;19.80;99.90
10826;DHT22;5466;55.898;14.094;2023-09-19T10:46:44;19.90;99.90
10826;DHT22;5466;55.898;14.094;2023-09-19T10:48:45;19.90;99.90
10826;DHT22;5466;55.898;14.094;2023-09-19T10:50:52;19.90;99.90
10826;DHT22;5466;55.898;14.094;2023-09-19T10:52:55;19.70;99.90
10826;DHT22;5466;55.898;14.094;2023-09-19T10:54:59;19.40;99.90
10826;DHT22;5466;55.898;14.094;2023-09-19T10:57:01;19.30;99.90
10826;DHT22;5466;55.898;14.094;2023-09-19T11:01:08;19.50;99.90
10826;DHT22;5466;55.898;14.094;2023-09-19T11:03:19;19.50;99.90
10826;DHT22;5466;55.898;14.094;2023-09-19T11:05:20;19.30;99.90
10826;DHT22;5466;55.898;14.094;2023-09-19T11:07:21;19.20;99.90
10826;DHT22;5466;55.898;14.094;2023-09-19T11:09:22;19.10;99.90
10826;DHT22;5466;55.898;14.094;2023-09-19T11:11:42;18.80;99.90
10826;DHT22;5466;55.898;14.094;2023-09-19T11:13:43;18.70;99.90
10826;DHT22;5466;55.898;14.094;2023-09-19T11:18:00;19.30;99.90
10826;DHT22;5466;55.898;14.094;2023-09-19T11:22:12;19.80;99.90
10826;DHT22;5466;55.898;14.094;2023-09-19T11:26:40;19.70;99.90
10826;DHT22;5466;55.898;14.094;2023-09-19T11:28:47;19.90;99.90
10826;DHT22;5466;55.898;14.094;2023-09-19T11:30:49;19.90;99.90
10826;DHT22;5466;55.898;14.094;2023-09-19T11:33:16;19.80;99.90
10826;DHT22;5466;55.898;14.094;2023-09-19T11:38:00;19.90;99.90
10826;DHT22;5466;55.898;14.094;2023-09-19T11:40:08;20.00;99.90
10826;DHT22;5466;55.898;14.094;2023-09-19T11:44:42;20.00;99.90
10826;DHT22;5466;55.898;14.094;2023-09-19T11:46:53;19.70;99.90
10826;DHT22;5466;55.898;14.094;2023-09-19T11:48:54;19.60;99.90
10826;DHT22;5466;55.898;14.094;2023-09-19T11:50:56;19.40;99.90
10826;DHT22;5466;55.898;14.094;2023-09-19T11:52:58;19.10;99.90
10826;DHT22;5466;55.898;14.094;2023-09-19T11:55:00;19.10;99.90
10826;DHT22;5466;55.898;14.094;2023-09-19T11:57:02;19.30;99.90
10826;DHT22;5466;55.898;14.094;2023-09-19T11:59:03;19.40;99.90
10826;DHT22;5466;55.898;14.094;2023-09-19T12:01:05;19.40;99.90
10826;DHT22;5466;55.898;14.094;2023-09-19T12:03:13;19.40;99.90
10826;DHT22;5466;55.898;14.094;2023-09-19T12:05:31;19.30;99.90
10826;DHT22;5466;55.898;14.094;2023-09-19T12:07:42;18.90;99.90
10826;DHT22;5466;55.898;14.094;2023-09-19T12:09:48;18.50;99.90
10826;DHT22;5466;55.898;14.094;2023-09-19T12:11:49;18.00;99.90
10826;DHT22;5466;55.898;14.094;2023-09-19T12:13:50;17.60;99.90
10826;DHT22;5466;55.898;14.094;2023-09-19T12:15:51;17.30;99.90
10826;DHT22;5466;55.898;14.094;2023-09-19T12:17:52;17.00;99.90
10826;DHT22;5466;55.898;14.094;2023-09-19T12:19:55;16.80;99.90
10826;DHT22;5466;55.898;14.094;2023-09-19T12:22:02;16.70;99.90
10826;DHT22;5466;55.898;14.094;2023-09-19T12:24:06;16.60;99.90
10826;DHT22;5466;55.898;14.094;2023-09-19T12:26:07;16.30;99.90
10826;DHT22;5466;55.898;14.094;2023-09-19T12:28:13;16.20;99.90
10826;DHT22;5466;55.898;14.094;2023-09-19T12:30:14;16.00;99.90
10826;DHT22;5466;55.898;14.094;2023-09-19T12:32:18;15.90;99.90
10826;DHT22;5466;55.898;14.094;2023-09-19T12:34:26;15.80;99.90
10826;DHT22;5466;55.898;14.094;2023-09-19T12:36:29;15.90;99.90
10826;DHT22;5466;55.898;14.094;2023-09-19T12:38:30;16.00;99.90
10826;DHT22;5466;55.898;14.094;2023-09-19T12:40:35;16.30;99.90
10826;DHT22;5466;55.898;14.094;2023-09-19T12:42:38;16.50;99.90
10826;DHT22;5466;55.898;14.094;2023-09-19T12:44:41;16.70;99.90
10826;DHT22;5466;55.898;14.094;2023-09-19T12:46:44;16.80;99.90
10826;DHT22;5466;55.898;14.094;2023-09-19T12:48:45;16.90;99.90
10826;DHT22;5466;55.898;14.094;2023-09-19T12:51:07;17.20;99.90
10826;DHT22;5466;55.898;14.094;2023-09-19T12:53:25;17.30;99.90
10826;DHT22;5466;55.898;14.094;2023-09-19T12:55:29;17.50;99.90
10826;DHT22;5466;55.898;14.094;2023-09-19T12:57:34;17.60;99.90
10826;DHT22;5466;55.898;14.094;2023-09-19T12:59:36;17.60;99.90
10826;DHT22;5466;55.898;14.094;2023-09-19T13:01:36;17.60;99.90
10826;DHT22;5466;55.898;14.094;2023-09-19T13:03:41;17.80;99.90
10826;DHT22;5466;55.898;14.094;2023-09-19T13:05:55;18.00;99.90
10826;DHT22;5466;55.898;14.094;2023-09-19T13:07:56;18.20;99.90
10826;DHT22;5466;55.898;14.094;2023-09-19T13:10:04;18.50;99.90
10826;DHT22;5466;55.898;14.094;2023-09-19T13:12:34;18.60;99.90
10826;DHT22;5466;55.898;14.094;2023-09-19T13:14:37;18.80;99.90
10826;DHT22;5466;55.898;14.094;2023-09-19T13:19:38;18.60;99.90
10826;DHT22;5466;55.898;14.094;2023-09-19T13:21:40;18.50;99.90
10826;DHT22;5466;55.898;14.094;2023-09-19T13:23:45;18.50;99.90
10826;DHT22;5466;55.898;14.094;2023-09-19T13:25:46;18.40;99.90